Time;durP1;ratioP1;P1;durP2;ratioP2;P2;SDS_P1;SDS_P2;PMS_P1;PMS_P2;Temp;Humidity;BMP_temperature;BMP_pressure;BME280_temperature;BME280_humidity;BME280_pressure;Samples;Min_cycle;Max_cycle;Signal;HPM_P1;HPM_P2
2022/06/16 00:02:42;;;;;;;11.70;4.60;;;;;;;18.16;49.88;99320.15;235768;1203;138346;-58
2022/06/16 00:07:46;;;;;;;7.50;3.60;;;;;;;18.07;49.88;99322.52;235572;1202;138807;-55
2022/06/16 00:12:49;;;;;;;7.80;3.90;;;;;;;18.03;50.21;99319.14;235726;1203;138404;-54
2022/06/16 00:17:52;;;;;;;7.50;3.80;;;;;;;17.99;50.15;99309.77;235820;1203;139168;-56
2022/06/16 00:22:55;;;;;;;8.80;4.30;;;;;;;17.92;50.38;99311.48;235788;1202;138597;-54
2022/06/16 00:27:58;;;;;;;9.90;4.30;;;;;;;17.87;50.48;99312.61;235860;1203;141054;-56
2022/06/16 00:33:01;;;;;;;8.80;4.70;;;;;;;17.82;50.78;99314.20;235790;1203;139803;-57
2022/06/16 00:38:04;;;;;;;8.10;4.30;;;;;;;17.76;50.87;99313.28;235800;1203;141307;-56
2022/06/16 00:43:09;;;;;;;7.50;4.30;;;;;;;17.69;51.14;99307.17;235731;1202;138927;-56
2022/06/16 00:48:38;;;;;;;7.60;4.60;;;;;;;17.65;51.19;99300.77;235798;1203;139263;-57
2022/06/16 00:53:43;;;;;;;9.00;4.50;;;;;;;17.62;51.05;99293.84;235711;1203;138921;-57
2022/06/16 00:58:54;;;;;;;7.10;4.60;;;;;;;17.61;50.99;99290.17;235895;1203;138480;-57
2022/06/16 01:09:22;;;;;;;11.00;4.50;;;;;;;17.52;51.39;99283.05;235790;1203;138850;-58
2022/06/16 01:14:41;;;;;;;8.60;5.00;;;;;;;17.47;51.32;99277.67;235708;1203;139071;-58
2022/06/16 01:20:09;;;;;;;7.90;4.20;;;;;;;17.44;51.74;99282.64;235732;1203;138447;-57
2022/06/16 01:25:25;;;;;;;10.50;4.70;;;;;;;17.38;51.64;99281.17;235768;1203;139638;-58
2022/06/16 01:30:34;;;;;;;10.60;4.90;;;;;;;17.29;51.71;99276.64;235763;1203;139841;-56
2022/06/16 01:35:50;;;;;;;9.80;4.70;;;;;;;17.19;52.05;99281.40;235536;1203;139264;-57
2022/06/16 01:41:11;;;;;;;8.30;4.40;;;;;;;17.06;52.20;99276.90;235898;1203;138958;-56
2022/06/16 01:46:14;;;;;;;10.80;4.60;;;;;;;17.00;52.48;99276.42;235869;1203;139201;-56
2022/06/16 01:51:29;;;;;;;10.70;4.80;;;;;;;16.91;52.71;99274.61;235703;1202;138587;-57
2022/06/16 01:56:50;;;;;;;8.40;4.80;;;;;;;16.83;52.98;99273.90;235898;1203;139037;-57
2022/06/16 02:01:59;;;;;;;11.50;5.20;;;;;;;16.73;52.83;99266.27;235748;1203;138828;-59
2022/06/16 02:07:10;;;;;;;11.70;4.70;;;;;;;16.67;52.89;99266.56;234935;1203;139156;-56
2022/06/16 02:17:48;;;;;;;11.50;5.20;;;;;;;16.55;53.32;99258.48;235768;1203;139896;-57
2022/06/16 02:22:51;;;;;;;11.90;5.40;;;;;;;16.53;53.65;99255.20;235908;1203;139065;-55
2022/06/16 02:27:54;;;;;;;9.40;4.60;;;;;;;16.54;53.56;99257.80;235131;1203;138749;-57
2022/06/16 02:33:20;;;;;;;8.00;5.10;;;;;;;16.51;53.65;99260.19;235676;1203;138822;-56
2022/06/16 02:38:41;;;;;;;7.40;4.30;;;;;;;16.49;53.84;99258.24;235769;1202;138385;-60
2022/06/16 02:44:03;;;;;;;8.50;5.00;;;;;;;16.45;53.83;99258.23;235859;1203;139127;-59
2022/06/16 02:49:13;;;;;;;8.90;4.80;;;;;;;16.42;53.71;99267.04;235673;1203;138348;-61
2022/06/16 02:54:23;;;;;;;7.20;4.80;;;;;;;16.37;54.09;99270.52;235846;1202;139065;-60
2022/06/16 02:59:32;;;;;;;10.30;5.30;;;;;;;16.35;54.21;99272.99;235814;1203;138919;-59
2022/06/16 03:04:44;;;;;;;12.30;5.20;;;;;;;16.34;54.35;99270.03;235931;1203;138733;-61
2022/06/16 03:09:47;;;;;;;12.90;4.90;;;;;;;16.35;54.40;99269.64;235754;1203;138601;-55
2022/06/16 03:14:52;;;;;;;7.60;4.60;;;;;;;16.41;54.38;99278.44;235748;1203;138623;-56
2022/06/16 03:20:00;;;;;;;8.20;4.80;;;;;;;16.44;54.29;99278.52;235960;1203;138992;-54
2022/06/16 03:25:05;;;;;;;8.80;4.80;;;;;;;16.43;54.45;99267.16;235810;1203;139005;-53
2022/06/16 03:30:11;;;;;;;7.80;4.60;;;;;;;16.47;54.34;99272.94;234219;1203;138975;-56
2022/06/16 03:35:14;;;;;;;8.10;4.70;;;;;;;16.44;54.59;99271.39;235783;1203;138681;-61
2022/06/16 03:40:18;;;;;;;8.10;4.50;;;;;;;16.42;54.68;99261.89;235893;1203;138502;-56
2022/06/16 03:45:25;;;;;;;9.40;5.20;;;;;;;16.43;54.66;99256.75;235773;1203;138677;-57
2022/06/16 03:50:29;;;;;;;9.50;5.20;;;;;;;16.45;54.96;99260.36;235748;1203;138212;-58
2022/06/16 03:55:33;;;;;;;10.90;5.00;;;;;;;16.51;54.74;99257.56;235764;1203;138767;-57
2022/06/16 04:00:36;;;;;;;7.60;4.90;;;;;;;16.57;54.82;99256.29;235417;1202;139244;-57
2022/06/16 04:05:41;;;;;;;12.60;5.60;;;;;;;16.65;54.79;99256.89;234489;1201;139628;-53
2022/06/16 04:10:48;;;;;;;8.40;5.40;;;;;;;16.75;54.90;99252.80;235895;1203;138645;-57
2022/06/16 04:15:52;;;;;;;7.80;4.80;;;;;;;16.86;54.99;99252.31;235768;1202;141817;-55
2022/06/16 04:20:57;;;;;;;8.30;5.00;;;;;;;16.98;54.74;99254.52;235729;1202;139518;-58
2022/06/16 04:26:19;;;;;;;8.80;5.10;;;;;;;17.10;54.53;99251.13;235898;1203;139103;-58
2022/06/16 04:31:24;;;;;;;8.50;4.90;;;;;;;17.18;54.76;99248.52;235752;1203;138483;-56
2022/06/16 04:36:29;;;;;;;10.70;5.10;;;;;;;17.31;54.85;99242.56;235795;1202;138686;-56
2022/06/16 04:41:39;;;;;;;8.90;5.10;;;;;;;17.39;54.49;99245.98;235785;1203;139133;-58
2022/06/16 04:46:44;;;;;;;12.60;4.90;;;;;;;17.47;54.37;99245.93;236004;1202;139288;-57
2022/06/16 04:51:49;;;;;;;9.90;6.10;;;;;;;17.49;54.35;99244.05;235743;1202;138663;-56
2022/06/16 04:56:54;;;;;;;13.80;5.70;;;;;;;17.44;54.51;99243.21;235455;1202;138836;-57
2022/06/16 05:02:15;;;;;;;11.90;6.30;;;;;;;17.49;54.59;99247.00;234835;1202;139037;-58
2022/06/16 05:07:38;;;;;;;14.00;7.40;;;;;;;17.58;54.85;99239.98;235201;1203;138636;-57
2022/06/16 05:12:50;;;;;;;16.80;9.80;;;;;;;17.70;54.91;99236.98;235647;1203;139106;-57
2022/06/16 05:18:22;;;;;;;22.50;12.10;;;;;;;17.81;54.87;99235.11;235555;1203;140163;-58
2022/06/16 05:23:45;;;;;;;21.90;12.60;;;;;;;17.88;54.49;99233.37;235735;1202;138795;-59
2022/06/16 05:29:07;;;;;;;23.90;14.30;;;;;;;18.02;54.73;99228.45;235791;1202;138603;-56
2022/06/16 05:34:29;;;;;;;21.60;12.50;;;;;;;18.15;54.69;99225.77;235726;1203;139474;-57
2022/06/16 05:39:43;;;;;;;17.50;11.20;;;;;;;18.30;54.77;99224.98;233495;1202;141185;-54
2022/06/16 05:44:55;;;;;;;19.50;10.90;;;;;;;18.37;54.62;99218.23;235682;1201;138781;-57
2022/06/16 05:50:22;;;;;;;23.00;10.40;;;;;;;18.50;54.61;99218.28;235737;1202;139462;-59
2022/06/16 05:55:25;;;;;;;17.00;10.00;;;;;;;18.61;54.55;99219.20;235705;1203;139358;-59
2022/06/16 06:00:29;;;;;;;16.20;10.00;;;;;;;18.73;54.46;99218.67;235634;1203;138829;-59
2022/06/16 06:05:32;;;;;;;16.30;9.50;;;;;;;18.79;54.25;99217.63;235622;1203;138963;-58
2022/06/16 06:26:48;;;;;;;24.40;13.30;;;;;;;19.46;53.82;99205.14;235574;1202;138739;-58
2022/06/16 06:31:51;;;;;;;29.60;13.90;;;;;;;19.59;53.84;99204.27;235759;1201;139137;-56
2022/06/16 06:36:54;;;;;;;24.10;12.60;;;;;;;19.69;53.51;99198.96;235685;1203;139656;-59
2022/06/16 06:41:58;;;;;;;26.90;13.20;;;;;;;19.79;53.33;99198.92;235866;1202;138488;-58
2022/06/16 06:47:02;;;;;;;25.10;13.00;;;;;;;19.88;53.45;99192.46;235931;1203;138733;-57
2022/06/16 06:52:05;;;;;;;25.00;11.50;;;;;;;20.00;53.29;99195.95;235708;1203;139260;-58
2022/06/16 06:57:30;;;;;;;26.60;10.80;;;;;;;20.08;53.32;99187.70;236039;1203;141261;-57
2022/06/16 07:02:33;;;;;;;24.30;9.60;;;;;;;20.27;53.29;99184.05;235640;1203;139220;-57
2022/06/16 07:07:37;;;;;;;21.80;9.30;;;;;;;20.40;53.05;99174.11;235642;1203;139836;-56
2022/06/16 07:12:40;;;;;;;23.80;9.20;;;;;;;20.55;53.05;99169.74;235623;1204;139160;-58
2022/06/16 07:17:43;;;;;;;8.80;3.70;;;;;;;20.64;52.69;99166.14;235667;1203;138706;-56
2022/06/16 07:22:47;;;;;;;9.20;3.70;;;;;;;20.83;51.82;99162.41;235091;1203;138662;-63
2022/06/16 07:27:53;;;;;;;5.30;2.80;;;;;;;20.98;51.67;99159.77;235615;1203;138450;-60
2022/06/16 07:32:56;;;;;;;7.30;3.30;;;;;;;21.18;51.20;99157.63;235573;1203;138249;-60
2022/06/16 07:37:59;;;;;;;6.80;3.00;;;;;;;21.33;50.79;99151.10;235869;1201;139304;-58
2022/06/16 07:43:02;;;;;;;39.70;35.00;;;;;;;21.50;50.44;99153.04;235298;1203;138506;-57
2022/06/16 07:48:06;;;;;;;8.10;4.80;;;;;;;21.62;50.37;99146.17;235629;1204;140413;-57
2022/06/16 07:53:09;;;;;;;68.30;52.10;;;;;;;21.84;50.49;99147.85;235732;1202;139005;-57
2022/06/16 07:58:13;;;;;;;52.80;44.00;;;;;;;21.99;49.83;99144.95;235702;1204;138825;-57
2022/06/16 08:03:17;;;;;;;6.90;5.30;;;;;;;22.16;49.41;99142.98;235744;1203;141745;-58
2022/06/16 08:08:23;;;;;;;6.00;3.50;;;;;;;22.31;49.22;99139.14;235665;1203;138330;-57
2022/06/16 08:13:27;;;;;;;40.00;29.40;;;;;;;22.48;49.01;99133.89;235889;1203;138727;-56
2022/06/16 08:18:30;;;;;;;11.60;6.90;;;;;;;22.61;48.85;99132.23;235794;1203;138461;-59
2022/06/16 08:23:33;;;;;;;5.30;3.00;;;;;;;22.78;48.66;99126.84;235456;1203;139786;-57
2022/06/16 08:28:38;;;;;;;6.90;2.70;;;;;;;22.91;48.66;99123.06;235105;1203;138974;-57
2022/06/16 08:33:41;;;;;;;32.50;24.20;;;;;;;23.08;48.05;99126.27;235347;1203;138650;-58
2022/06/16 08:38:44;;;;;;;6.90;2.80;;;;;;;23.20;47.71;99120.75;235099;1203;138474;-59
2022/06/16 08:44:12;;;;;;;6.80;2.80;;;;;;;23.32;47.51;99115.35;235515;1203;138481;-57
2022/06/16 08:49:33;;;;;;;7.30;2.80;;;;;;;23.42;47.14;99111.71;234988;1203;138193;-57
2022/06/16 08:55:01;;;;;;;4.50;2.80;;;;;;;23.51;47.01;99106.01;235839;1203;138505;-59
2022/06/16 09:00:09;;;;;;;5.30;2.70;;;;;;;23.61;46.88;99107.69;235950;1202;138446;-56
2022/06/16 09:05:51;;;;;;;10.60;2.90;;;;;;;23.74;46.81;99108.79;235769;1203;138604;-58
2022/06/16 09:11:13;;;;;;;49.00;32.50;;;;;;;23.94;46.54;99105.58;233898;1203;141329;-56
2022/06/16 09:16:29;;;;;;;5.60;3.00;;;;;;;24.09;46.19;99100.14;235940;1203;138988;-57
2022/06/16 09:21:35;;;;;;;4.00;2.70;;;;;;;24.22;45.82;99090.25;235459;1203;139350;-56
2022/06/16 09:26:47;;;;;;;3.70;2.10;;;;;;;24.39;45.49;99093.56;235809;1203;139962;-57
2022/06/16 09:32:06;;;;;;;3.40;1.80;;;;;;;24.48;44.75;99087.44;235802;1203;138882;-57
2022/06/16 09:37:21;;;;;;;6.50;3.50;;;;;;;24.62;44.44;99086.09;235906;1203;139412;-58
2022/06/16 09:42:36;;;;;;;2.60;1.70;;;;;;;24.73;44.02;99087.34;235957;1203;138999;-55
2022/06/16 09:47:57;;;;;;;4.80;2.10;;;;;;;24.87;43.57;99083.42;235644;1203;139727;-57
2022/06/16 09:53:21;;;;;;;5.80;2.10;;;;;;;25.10;43.39;99088.47;235241;1203;140350;-55
2022/06/16 09:58:30;;;;;;;3.80;1.90;;;;;;;25.26;43.10;99080.84;234478;1203;138182;-55
2022/06/16 10:04:00;;;;;;;2.40;1.70;;;;;;;25.38;42.65;99076.88;235759;1203;138766;-57
2022/06/16 10:09:31;;;;;;;17.80;13.80;;;;;;;25.53;42.30;99075.37;235818;1203;138667;-56
2022/06/16 10:14:34;;;;;;;10.20;6.20;;;;;;;25.75;42.52;99074.46;234014;1203;140343;-55
2022/06/16 10:19:44;;;;;;;6.80;4.10;;;;;;;25.91;42.24;99071.02;233835;1203;138803;-55
2022/06/16 10:24:56;;;;;;;2.50;2.10;;;;;;;26.06;41.64;99074.75;235752;1204;138716;-56
2022/06/16 10:30:01;;;;;;;5.40;2.20;;;;;;;26.13;41.19;99065.46;235948;1203;139745;-54
2022/06/16 10:35:06;;;;;;;4.50;1.70;;;;;;;26.29;41.10;99063.98;235668;1204;139374;-57
2022/06/16 10:40:18;;;;;;;2.70;1.40;;;;;;;26.44;40.62;99066.27;235891;1203;138819;-56
2022/06/16 10:45:25;;;;;;;6.30;2.30;;;;;;;26.59;40.08;99066.74;235665;1204;138819;-55
2022/06/16 10:50:40;;;;;;;18.00;14.40;;;;;;;26.77;39.86;99065.63;235193;1204;138803;-56
2022/06/16 10:55:46;;;;;;;3.70;1.90;;;;;;;26.91;39.47;99062.20;234764;1204;139305;-55
2022/06/16 11:01:22;;;;;;;7.80;4.80;;;;;;;27.02;38.87;99064.38;235768;1203;140281;-57
2022/06/16 11:06:25;;;;;;;3.30;2.50;;;;;;;27.11;38.56;99052.85;235613;1204;138900;-55
2022/06/16 11:11:52;;;;;;;3.10;2.00;;;;;;;27.05;38.34;99049.89;236197;1203;138653;-58
2022/06/16 11:16:56;;;;;;;2.80;1.60;;;;;;;27.18;38.25;99044.73;235920;1202;138477;-57
2022/06/16 11:22:23;;;;;;;3.40;1.50;;;;;;;27.21;37.89;99039.06;235710;1203;140539;-55
2022/06/16 11:27:28;;;;;;;3.60;1.50;;;;;;;27.11;37.15;99035.61;235630;1204;139132;-57
2022/06/16 11:32:35;;;;;;;33.00;26.90;;;;;;;27.03;36.82;99036.96;235617;1204;139250;-57
2022/06/16 11:37:58;;;;;;;4.50;3.70;;;;;;;27.19;36.89;99031.96;235715;1204;139563;-58
2022/06/16 11:43:28;;;;;;;3.30;2.20;;;;;;;27.32;36.80;99026.48;235112;1204;139573;-57
2022/06/16 11:48:34;;;;;;;81.00;63.90;;;;;;;27.44;37.01;99026.14;235619;1204;138689;-57
2022/06/16 11:53:50;;;;;;;8.80;3.80;;;;;;;27.61;37.21;99014.13;235639;1204;138756;-57
2022/06/16 11:59:26;;;;;;;5.60;2.40;;;;;;;27.90;37.13;99011.38;235785;1204;139158;-56
2022/06/16 12:04:43;;;;;;;3.90;1.80;;;;;;;28.15;36.83;99007.29;235812;1204;138802;-56
2022/06/16 12:10:24;;;;;;;3.00;2.10;;;;;;;28.41;36.30;99005.20;235105;1204;138628;-58
2022/06/16 12:15:55;;;;;;;2.80;1.70;;;;;;;28.63;35.64;99001.16;235680;1204;139259;-58
2022/06/16 12:21:00;;;;;;;2.70;1.60;;;;;;;28.55;35.41;98993.91;235487;1203;139174;-56
2022/06/16 12:26:11;;;;;;;5.70;2.00;;;;;;;28.34;35.12;98981.66;235658;1204;139204;-57
2022/06/16 12:31:24;;;;;;;41.90;37.40;;;;;;;28.19;34.82;98967.16;235601;1204;139223;-55
2022/06/16 12:36:38;;;;;;;7.60;4.70;;;;;;;28.35;34.89;98960.55;235650;1203;140378;-55
2022/06/16 12:41:48;;;;;;;4.40;3.10;;;;;;;28.62;34.93;98946.46;235586;1203;138576;-54
2022/06/16 12:46:55;;;;;;;3.70;1.70;;;;;;;28.78;34.59;98938.98;235790;1202;138533;-57
2022/06/16 12:52:24;;;;;;;3.40;1.70;;;;;;;28.85;34.48;98930.48;235792;1204;140057;-58
2022/06/16 12:57:40;;;;;;;3.50;1.60;;;;;;;29.05;34.56;98929.34;235614;1203;138899;-59
2022/06/16 13:02:49;;;;;;;4.30;1.50;;;;;;;29.20;34.46;98914.00;235607;1204;139249;-54
2022/06/16 13:07:56;;;;;;;3.50;1.60;;;;;;;29.18;33.97;98911.44;235694;1204;138840;-59
2022/06/16 13:13:00;;;;;;;294.40;262.00;;;;;;;29.03;33.72;98908.44;235679;1203;138605;-58
2022/06/16 13:18:13;;;;;;;4.30;3.90;;;;;;;28.84;33.72;98892.55;235657;1202;139875;-57
2022/06/16 13:23:18;;;;;;;5.20;3.50;;;;;;;28.64;33.41;98891.10;235650;1203;138559;-58
2022/06/16 13:28:30;;;;;;;4.50;1.60;;;;;;;28.45;33.26;98883.14;235732;1204;139047;-56
2022/06/16 13:33:52;;;;;;;4.80;1.80;;;;;;;28.24;33.38;98874.62;235638;1204;138669;-57
2022/06/16 13:38:56;;;;;;;2.50;1.50;;;;;;;28.07;33.57;98867.19;235644;1204;139034;-56
2022/06/16 13:44:14;;;;;;;7.30;2.80;;;;;;;27.93;33.54;98867.15;235602;1202;140242;-56
2022/06/16 13:49:57;;;;;;;3.20;1.60;;;;;;;27.76;33.67;98856.92;234431;1203;139427;-54
2022/06/16 13:55:24;;;;;;;6.20;2.00;;;;;;;27.66;33.65;98839.10;235710;1203;139383;-57
2022/06/16 14:00:35;;;;;;;2.30;1.70;;;;;;;27.87;34.30;98818.72;235639;1202;139456;-57
2022/06/16 14:05:50;;;;;;;8.40;2.00;;;;;;;27.95;34.60;98819.20;235644;1203;139635;-56
2022/06/16 14:11:14;;;;;;;24.60;18.20;;;;;;;27.91;34.80;98811.98;235717;1204;138589;-57
2022/06/16 14:16:21;;;;;;;149.60;128.60;;;;;;;27.86;34.90;98802.30;235723;1203;140701;-58
2022/06/16 14:21:33;;;;;;;14.80;13.30;;;;;;;27.78;34.82;98800.75;235617;1202;141801;-55
2022/06/16 14:26:41;;;;;;;21.10;16.60;;;;;;;27.67;34.81;98785.89;235692;1204;140251;-55
2022/06/16 14:32:03;;;;;;;14.90;10.70;;;;;;;27.55;35.34;98783.73;235535;1203;140020;-54
2022/06/16 14:37:18;;;;;;;9.20;5.30;;;;;;;27.34;35.62;98773.15;235654;1203;139566;-57
2022/06/16 14:42:31;;;;;;;12.00;2.60;;;;;;;27.10;35.81;98794.63;235450;1203;139676;-55
2022/06/16 14:48:03;;;;;;;12.60;2.80;;;;;;;26.79;36.16;98843.11;235560;1204;138595;-53
2022/06/16 14:53:24;;;;;;;8.80;2.00;;;;;;;26.17;36.83;98901.08;235560;1203;139270;-53
2022/06/16 14:59:02;;;;;;;6.00;2.60;;;;;;;24.78;38.97;98967.23;235734;1202;140213;-55
2022/06/16 15:04:08;;;;;;;41.80;36.80;;;;;;;23.59;40.72;99023.38;235728;1203;138897;-56
2022/06/16 15:09:18;;;;;;;290.60;226.00;;;;;;;22.84;42.05;99067.06;235628;1203;141294;-55
2022/06/16 15:14:24;;;;;;;12.30;6.70;;;;;;;22.20;43.87;99088.27;235583;1203;139384;-57
2022/06/16 15:19:32;;;;;;;8.70;5.60;;;;;;;21.79;45.04;99083.92;235523;1204;139534;-57
2022/06/16 15:24:54;;;;;;;7.40;2.40;;;;;;;21.48;46.45;99072.06;235607;1203;139000;-56
2022/06/16 15:29:59;;;;;;;10.00;6.10;;;;;;;21.24;47.57;99067.19;235603;1203;139473;-57
2022/06/16 15:40:38;;;;;;;5.80;2.20;;;;;;;20.97;50.08;99062.43;235732;1203;139312;-55
2022/06/16 15:45:48;;;;;;;6.60;2.30;;;;;;;20.95;50.79;99084.84;235604;1203;140910;-55
2022/06/16 15:50:52;;;;;;;4.60;2.60;;;;;;;20.94;51.47;99110.53;235644;1203;139921;-57
2022/06/16 15:55:55;;;;;;;4.60;2.80;;;;;;;20.92;52.03;99099.88;235550;1203;139435;-58
2022/06/16 16:01:06;;;;;;;10.00;3.30;;;;;;;20.96;52.47;99103.45;235665;1201;139403;-57
2022/06/16 16:06:12;;;;;;;129.00;106.20;;;;;;;21.15;52.79;99112.35;235542;1202;139856;-55
2022/06/16 16:11:24;;;;;;;6.20;4.30;;;;;;;21.26;52.67;99111.36;235583;1202;140750;-56
2022/06/16 16:16:28;;;;;;;5.40;2.30;;;;;;;21.15;52.71;99119.95;235629;1204;138411;-56
2022/06/16 16:21:39;;;;;;;4.60;2.60;;;;;;;20.97;52.97;99136.58;235408;1203;139290;-54
2022/06/16 16:26:55;;;;;;;3.60;2.20;;;;;;;20.77;53.52;99128.89;235622;1203;139384;-57
2022/06/16 16:32:02;;;;;;;3.80;2.00;;;;;;;20.66;54.11;99124.84;235682;1202;139353;-56
2022/06/16 16:37:20;;;;;;;5.10;2.70;;;;;;;20.63;54.09;99116.61;235639;1203;139987;-57
2022/06/16 16:48:15;;;;;;;3.80;2.20;;;;;;;20.68;54.69;99134.73;235627;1203;139677;-55
2022/06/16 16:53:34;;;;;;;4.00;2.50;;;;;;;20.67;54.80;99142.36;235607;1203;140929;-56
2022/06/16 16:58:43;;;;;;;48.20;39.70;;;;;;;20.69;55.18;99134.40;235765;1203;139196;-55
2022/06/16 17:03:47;;;;;;;41.90;35.90;;;;;;;20.97;55.47;99126.83;235604;1202;139757;-57
2022/06/16 17:08:50;;;;;;;17.90;11.90;;;;;;;21.10;55.06;99115.16;235746;1203;140182;-58
2022/06/16 17:13:56;;;;;;;7.40;4.30;;;;;;;21.05;54.91;99118.02;235070;1203;140352;-56
2022/06/16 17:18:59;;;;;;;5.90;4.30;;;;;;;20.99;55.10;99120.51;235642;1202;139862;-53
2022/06/16 17:24:03;;;;;;;7.40;3.90;;;;;;;20.92;55.38;99105.38;235692;1202;140167;-54
2022/06/16 17:29:06;;;;;;;8.80;3.60;;;;;;;20.98;55.45;99092.98;235494;1203;140311;-55
2022/06/16 17:34:24;;;;;;;7.30;4.80;;;;;;;21.07;55.41;99075.27;235807;1203;139384;-56
2022/06/16 17:39:33;;;;;;;8.60;4.90;;;;;;;21.12;55.48;99053.51;235604;1203;140409;-58
2022/06/16 17:44:36;;;;;;;5.10;3.60;;;;;;;21.12;55.27;99057.64;235642;1203;138939;-55
2022/06/16 17:49:40;;;;;;;5.40;3.80;;;;;;;21.04;55.30;99052.35;235635;1203;139497;-56
2022/06/16 18:00:07;;;;;;;9.00;4.30;;;;;;;21.08;55.75;99045.23;235746;1203;140597;-57
2022/06/16 18:05:16;;;;;;;14.90;9.30;;;;;;;21.00;55.57;99049.46;235757;1203;140128;-56
2022/06/16 18:10:26;;;;;;;14.70;10.30;;;;;;;20.93;55.95;99046.11;235725;1203;140153;-55
2022/06/16 18:15:29;;;;;;;6.40;4.20;;;;;;;20.99;56.21;99053.50;235629;1203;140073;-56
2022/06/16 18:20:35;;;;;;;6.50;3.90;;;;;;;20.99;56.33;99064.54;235024;1203;144250;-56
2022/06/16 18:25:39;;;;;;;8.70;4.10;;;;;;;20.99;56.52;99053.14;235659;1202;139701;-58
2022/06/16 18:30:42;;;;;;;7.00;4.00;;;;;;;20.96;56.65;99044.73;235755;1203;139972;-57
2022/06/16 18:35:46;;;;;;;8.50;4.40;;;;;;;20.91;56.81;99048.13;235702;1203;139730;-55
2022/06/16 18:40:49;;;;;;;8.00;4.40;;;;;;;20.84;56.94;99046.67;235812;1203;139126;-57
2022/06/16 18:45:53;;;;;;;6.70;4.20;;;;;;;20.76;57.11;99058.12;235552;1203;139561;-55
2022/06/16 18:50:58;;;;;;;8.70;4.40;;;;;;;20.68;57.36;99065.04;235677;1203;140337;-54
2022/06/16 18:56:03;;;;;;;9.30;4.50;;;;;;;20.68;57.63;99077.00;235788;1203;139768;-56
2022/06/16 19:01:15;;;;;;;31.30;24.90;;;;;;;20.73;57.86;99095.66;235720;1201;140353;-55
2022/06/16 19:06:20;;;;;;;26.70;22.50;;;;;;;21.00;58.56;99104.66;235757;1203;141955;-57
2022/06/16 19:11:23;;;;;;;7.40;5.80;;;;;;;21.17;58.63;99121.48;235779;1203;139934;-55
2022/06/16 19:16:25;;;;;;;260.40;214.80;;;;;;;21.16;57.90;99134.42;235114;1203;138972;-53
2022/06/16 19:21:33;;;;;;;76.90;62.90;;;;;;;21.00;57.91;99140.98;235436;1203;144036;-58
2022/06/16 19:26:37;;;;;;;11.20;7.20;;;;;;;20.81;57.98;99160.79;235833;1203;140027;-59
2022/06/16 19:31:45;;;;;;;13.50;7.50;;;;;;;20.64;58.15;99170.06;235617;1203;139778;-58
2022/06/16 19:36:48;;;;;;;10.20;7.10;;;;;;;20.59;58.43;99166.64;235801;1203;139810;-61
2022/06/16 19:41:56;;;;;;;13.70;8.10;;;;;;;20.56;58.51;99178.14;235910;1203;140053;-60
2022/06/16 19:52:22;;;;;;;11.00;7.40;;;;;;;20.48;58.92;99176.13;236066;1203;138591;-57
2022/06/16 19:57:26;;;;;;;10.10;5.90;;;;;;;20.48;58.97;99172.77;235739;1201;142248;-56
2022/06/16 20:02:29;;;;;;;7.10;5.00;;;;;;;20.45;58.99;99171.27;235991;1203;139290;-59
2022/06/16 20:07:32;;;;;;;6.80;4.70;;;;;;;20.36;58.91;99172.28;235914;1203;141266;-59
2022/06/16 20:12:44;;;;;;;6.70;4.30;;;;;;;20.31;59.06;99167.98;235908;1201;139748;-57
2022/06/16 20:17:48;;;;;;;6.60;5.20;;;;;;;20.32;59.26;99175.85;235787;1202;138764;-59
2022/06/16 20:22:51;;;;;;;9.20;5.10;;;;;;;20.33;59.47;99176.11;235782;1203;138530;-58
2022/06/16 20:27:54;;;;;;;10.30;5.30;;;;;;;20.31;59.31;99174.64;235667;1202;139101;-60
2022/06/16 20:32:58;;;;;;;7.90;4.80;;;;;;;20.19;59.20;99163.05;235736;1203;139673;-58
2022/06/16 20:38:01;;;;;;;8.40;4.60;;;;;;;20.04;59.31;99161.09;235916;1202;209244;-59
2022/06/16 20:43:04;;;;;;;10.90;4.10;;;;;;;19.96;59.54;99173.48;234184;1203;140352;-57
2022/06/16 20:48:15;;;;;;;8.40;4.20;;;;;;;19.90;59.67;99173.86;235673;1203;140198;-59
2022/06/16 20:53:20;;;;;;;8.10;4.00;;;;;;;19.82;59.98;99153.71;235878;1203;138931;-57
2022/06/16 21:03:45;;;;;;;7.10;4.00;;;;;;;19.77;60.34;99165.77;235593;1203;138961;-58
2022/06/16 21:08:49;;;;;;;11.40;4.30;;;;;;;19.76;60.36;99154.69;235811;1203;139049;-57
2022/06/16 21:13:54;;;;;;;12.40;4.30;;;;;;;19.72;60.32;99154.77;235720;1203;139364;-55
2022/06/16 21:18:57;;;;;;;6.80;4.60;;;;;;;19.71;60.40;99156.13;235692;1203;139573;-57
2022/06/16 21:24:00;;;;;;;8.30;4.90;;;;;;;19.76;60.63;99149.83;235852;1203;139362;-55
2022/06/16 21:29:03;;;;;;;8.70;4.70;;;;;;;19.88;60.69;99144.16;234788;1203;138846;-57
2022/06/16 21:34:07;;;;;;;10.40;5.00;;;;;;;19.96;60.76;99140.29;235777;1204;138607;-59
2022/06/16 21:39:11;;;;;;;7.50;5.00;;;;;;;19.90;60.50;99120.02;235678;1203;139288;-60
2022/06/16 21:44:14;;;;;;;10.80;5.30;;;;;;;19.80;60.52;99109.66;235632;1203;138827;-60
2022/06/16 21:49:17;;;;;;;7.80;4.40;;;;;;;19.78;60.73;99112.21;234840;1204;139475;-58
2022/06/16 21:54:23;;;;;;;9.30;4.50;;;;;;;19.76;60.85;99101.59;235394;1203;139941;-60
2022/06/16 21:59:26;;;;;;;7.90;4.70;;;;;;;19.84;60.97;99099.86;235373;1205;139329;-55
2022/06/16 22:04:32;;;;;;;6.80;5.10;;;;;;;19.87;60.98;99107.79;235965;1203;139758;-59
2022/06/16 22:09:36;;;;;;;7.90;5.10;;;;;;;19.84;61.03;99113.80;235815;1203;138816;-60
2022/06/16 22:20:13;;;;;;;6.80;5.50;;;;;;;19.80;61.03;99141.54;235833;1203;139716;-58
2022/06/16 22:25:17;;;;;;;13.60;7.20;;;;;;;19.75;61.22;99139.65;235685;1203;139093;-59
2022/06/16 22:30:21;;;;;;;8.30;5.50;;;;;;;19.77;61.29;99142.02;234519;1203;139380;-57
2022/06/16 22:35:31;;;;;;;8.30;6.00;;;;;;;19.75;61.39;99150.44;235828;1203;139695;-59
2022/06/16 22:40:37;;;;;;;11.90;6.60;;;;;;;19.76;61.59;99148.84;235939;1203;138577;-61
2022/06/16 22:45:42;;;;;;;12.70;6.70;;;;;;;19.64;61.65;99145.77;235617;1203;139621;-58
2022/06/16 22:50:45;;;;;;;11.90;6.70;;;;;;;19.60;61.86;99146.33;235817;1203;139369;-62
2022/06/16 23:01:14;;;;;;;8.50;6.10;;;;;;;19.54;62.01;99152.53;235910;1203;139467;-59
2022/06/16 23:06:21;;;;;;;6.70;5.90;;;;;;;19.50;62.20;99152.44;235525;1203;139009;-59
2022/06/16 23:11:25;;;;;;;11.30;6.40;;;;;;;19.45;62.30;99152.72;235938;1203;138324;-57
2022/06/16 23:16:36;;;;;;;9.70;6.10;;;;;;;19.38;62.24;99150.36;236004;1203;140204;-60
2022/06/16 23:21:39;;;;;;;10.30;6.80;;;;;;;19.30;62.21;99155.34;235417;1203;139153;-62
2022/06/16 23:26:44;;;;;;;9.20;6.50;;;;;;;19.24;62.22;99152.23;235729;1203;139481;-60
2022/06/16 23:31:54;;;;;;;12.10;7.30;;;;;;;19.20;62.44;99154.23;235238;1202;139846;-59
2022/06/16 23:36:57;;;;;;;11.90;7.80;;;;;;;19.19;62.58;99150.14;235805;1203;139342;-62
2022/06/16 23:42:00;;;;;;;12.00;8.30;;;;;;;19.10;62.53;99148.23;235958;1203;140790;-61
2022/06/16 23:47:04;;;;;;;16.60;8.20;;;;;;;19.04;62.73;99154.31;235894;1203;139037;-58
2022/06/16 23:52:17;;;;;;;13.00;8.30;;;;;;;18.96;62.62;99154.86;235760;1203;138931;-59
2022/06/16 23:57:20;;;;;;;13.90;8.90;;;;;;;18.88;62.75;99153.70;235886;1203;139660;-57
